sensor_id;sensor_type;location;lat;lon;timestamp;pressure;altitude;pressure_sealevel;temperature;humidity
70546;BME280;58098;51.680;5.134;2023-01-25T00:01:27;103872.69;;;0.87;100.00
70546;BME280;58098;51.680;5.134;2023-01-25T00:03:52;103872.69;;;0.87;100.00
70546;BME280;58098;51.680;5.134;2023-01-25T00:06:18;103869.22;;;0.83;100.00
70546;BME280;58098;51.680;5.134;2023-01-25T00:08:43;103853.72;;;0.76;100.00
70546;BME280;58098;51.680;5.134;2023-01-25T00:11:08;103872.66;;;0.84;100.00
70546;BME280;58098;51.680;5.134;2023-01-25T00:13:34;103857.19;;;0.81;100.00
70546;BME280;58098;51.680;5.134;2023-01-25T00:16:00;103852.88;;;0.78;100.00
70546;BME280;58098;51.680;5.134;2023-01-25T00:18:26;103857.19;;;0.78;100.00
70546;BME280;58098;51.680;5.134;2023-01-25T00:20:51;103863.16;;;0.78;100.00
70546;BME280;58098;51.680;5.134;2023-01-25T00:23:16;103869.19;;;0.79;100.00
70546;BME280;58098;51.680;5.134;2023-01-25T00:25:42;103862.25;;;0.72;100.00
70546;BME280;58098;51.680;5.134;2023-01-25T00:28:07;103853.63;;;0.65;100.00
70546;BME280;58098;51.680;5.134;2023-01-25T00:30:32;103856.25;;;0.70;100.00
70546;BME280;58098;51.680;5.134;2023-01-25T00:33:02;103864.78;;;0.68;100.00
70546;BME280;58098;51.680;5.134;2023-01-25T00:35:30;103862.19;;;0.65;100.00
70546;BME280;58098;51.680;5.134;2023-01-25T00:38:01;103853.63;;;0.65;100.00
70546;BME280;58098;51.680;5.134;2023-01-25T00:40:26;103857.91;;;0.64;100.00
70546;BME280;58098;51.680;5.134;2023-01-25T00:42:52;103849.28;;;0.58;100.00
70546;BME280;58098;51.680;5.134;2023-01-25T00:45:17;103855.34;;;0.66;100.00
70546;BME280;58098;51.680;5.134;2023-01-25T00:47:43;103844.13;;;0.58;100.00
70546;BME280;58098;51.680;5.134;2023-01-25T00:50:09;103847.63;;;0.66;100.00
70546;BME280;58098;51.680;5.134;2023-01-25T00:52:34;103846.78;;;0.65;100.00
70546;BME280;58098;51.680;5.134;2023-01-25T00:55:00;103850.22;;;0.68;100.00
70546;BME280;58098;51.680;5.134;2023-01-25T00:57:25;103838.22;;;0.66;100.00
70546;BME280;58098;51.680;5.134;2023-01-25T00:59:51;103833.91;;;0.62;100.00
70546;BME280;58098;51.680;5.134;2023-01-25T01:02:16;103827.84;;;0.56;100.00
70546;BME280;58098;51.680;5.134;2023-01-25T01:04:41;103837.34;;;0.63;100.00
70546;BME280;58098;51.680;5.134;2023-01-25T01:07:07;103826.13;;;0.56;100.00
70546;BME280;58098;51.680;5.134;2023-01-25T01:09:32;103832.13;;;0.57;100.00
70546;BME280;58098;51.680;5.134;2023-01-25T01:11:57;103838.03;;;0.51;100.00
70546;BME280;58098;51.680;5.134;2023-01-25T01:14:23;103834.56;;;0.43;100.00
70546;BME280;58098;51.680;5.134;2023-01-25T01:16:48;103819.06;;;0.37;100.00
70546;BME280;58098;51.680;5.134;2023-01-25T01:19:14;103824.25;;;0.39;100.00
70546;BME280;58098;51.680;5.134;2023-01-25T01:21:39;103825.13;;;0.41;100.00
70546;BME280;58098;51.680;5.134;2023-01-25T01:24:05;103836.25;;;0.44;100.00
70546;BME280;58098;51.680;5.134;2023-01-25T01:26:30;103843.09;;;0.42;100.00
70546;BME280;58098;51.680;5.134;2023-01-25T01:28:57;103833.59;;;0.34;100.00
70546;BME280;58098;51.680;5.134;2023-01-25T01:31:23;103836.94;;;0.28;100.00
70546;BME280;58098;51.680;5.134;2023-01-25T01:33:50;103848.19;;;0.38;100.00
70546;BME280;58098;51.680;5.134;2023-01-25T01:36:17;103829.19;;;0.24;100.00
70546;BME280;58098;51.680;5.134;2023-01-25T01:38:43;103842.94;;;0.30;100.00
70546;BME280;58098;51.680;5.134;2023-01-25T01:41:09;103851.47;;;0.29;100.00
70546;BME280;58098;51.680;5.134;2023-01-25T01:43:35;103846.34;;;0.29;100.00
70546;BME280;58098;51.680;5.134;2023-01-25T01:46:03;103836.84;;;0.19;100.00
70546;BME280;58098;51.680;5.134;2023-01-25T01:53:47;103849.78;;;0.27;100.00
70546;BME280;58098;51.680;5.134;2023-01-25T01:56:19;103844.59;;;0.25;100.00
70546;BME280;58098;51.680;5.134;2023-01-25T01:58:47;103823.00;;;0.08;100.00
70546;BME280;58098;51.680;5.134;2023-01-25T02:01:14;103822.22;;;0.12;100.00
70546;BME280;58098;51.680;5.134;2023-01-25T02:03:41;103832.50;;;0.15;100.00
70546;BME280;58098;51.680;5.134;2023-01-25T02:06:13;103838.59;;;0.23;100.00
70546;BME280;58098;51.680;5.134;2023-01-25T02:08:40;103814.53;;;0.15;100.00
70546;BME280;58098;51.680;5.134;2023-01-25T02:11:08;103830.06;;;0.27;100.00
70546;BME280;58098;51.680;5.134;2023-01-25T02:13:34;103825.81;;;0.29;100.00
70546;BME280;58098;51.680;5.134;2023-01-25T02:16:02;103815.47;;;0.23;100.00
70546;BME280;58098;51.680;5.134;2023-01-25T02:18:28;103816.41;;;0.28;100.00
70546;BME280;58098;51.680;5.134;2023-01-25T02:20:56;103821.53;;;0.27;100.00
70546;BME280;58098;51.680;5.134;2023-01-25T02:23:43;103822.38;;;0.27;100.00
70546;BME280;58098;51.680;5.134;2023-01-25T02:26:14;103814.56;;;0.20;100.00
70546;BME280;58098;51.680;5.134;2023-01-25T02:28:50;103812.91;;;0.22;100.00
70546;BME280;58098;51.680;5.134;2023-01-25T02:31:17;103818.97;;;0.28;100.00
70546;BME280;58098;51.680;5.134;2023-01-25T02:33:43;103808.66;;;0.24;100.00
70546;BME280;58098;51.680;5.134;2023-01-25T02:38:53;103812.13;;;0.30;100.00
70546;BME280;58098;51.680;5.134;2023-01-25T02:41:26;103814.47;;;0.11;100.00
70546;BME280;58098;51.680;5.134;2023-01-25T02:43:53;103804.91;;;-0.01;100.00
70546;BME280;58098;51.680;5.134;2023-01-25T02:46:23;103820.31;;;-0.01;100.00
70546;BME280;58098;51.680;5.134;2023-01-25T02:48:50;103812.63;;;-0.03;100.00
70546;BME280;58098;51.680;5.134;2023-01-25T02:51:15;103799.75;;;-0.06;100.00
70546;BME280;58098;51.680;5.134;2023-01-25T02:53:41;103796.41;;;0.02;100.00
70546;BME280;58098;51.680;5.134;2023-01-25T02:56:06;103789.56;;;0.02;100.00
70546;BME280;58098;51.680;5.134;2023-01-25T02:58:32;103806.00;;;0.16;100.00
70546;BME280;58098;51.680;5.134;2023-01-25T03:00:58;103762.13;;;-0.05;100.00
70546;BME280;58098;51.680;5.134;2023-01-25T03:03:23;103801.78;;;0.21;100.00
70546;BME280;58098;51.680;5.134;2023-01-25T03:05:48;103787.19;;;0.19;100.00
70546;BME280;58098;51.680;5.134;2023-01-25T03:08:14;103804.44;;;0.30;100.00
70546;BME280;58098;51.680;5.134;2023-01-25T03:10:39;103788.97;;;0.26;100.00
70546;BME280;58098;51.680;5.134;2023-01-25T03:13:04;103777.00;;;0.26;100.00
70546;BME280;58098;51.680;5.134;2023-01-25T03:15:30;103789.06;;;0.33;100.00
70546;BME280;58098;51.680;5.134;2023-01-25T03:17:56;103784.72;;;0.29;100.00
70546;BME280;58098;51.680;5.134;2023-01-25T03:20:22;103777.94;;;0.31;100.00
70546;BME280;58098;51.680;5.134;2023-01-25T03:22:47;103779.63;;;0.32;100.00
70546;BME280;58098;51.680;5.134;2023-01-25T03:25:13;103766.75;;;0.26;100.00
70546;BME280;58098;51.680;5.134;2023-01-25T03:27:38;103768.53;;;0.33;100.00
70546;BME280;58098;51.680;5.134;2023-01-25T03:30:04;103749.66;;;0.27;100.00
70546;BME280;58098;51.680;5.134;2023-01-25T03:32:30;103747.03;;;0.25;100.00
70546;BME280;58098;51.680;5.134;2023-01-25T03:34:55;103758.22;;;0.30;100.00
70546;BME280;58098;51.680;5.134;2023-01-25T03:37:20;103741.91;;;0.25;100.00
70546;BME280;58098;51.680;5.134;2023-01-25T03:39:46;103744.47;;;0.25;100.00
70546;BME280;58098;51.680;5.134;2023-01-25T03:42:11;103757.41;;;0.34;100.00
70546;BME280;58098;51.680;5.134;2023-01-25T03:44:37;103754.81;;;0.31;100.00
70546;BME280;58098;51.680;5.134;2023-01-25T03:47:02;103747.94;;;0.30;100.00
70546;BME280;58098;51.680;5.134;2023-01-25T03:49:27;103738.47;;;0.23;100.00
70546;BME280;58098;51.680;5.134;2023-01-25T03:51:53;103753.09;;;0.30;100.00
70546;BME280;58098;51.680;5.134;2023-01-25T03:54:18;103739.28;;;0.22;100.00
70546;BME280;58098;51.680;5.134;2023-01-25T03:56:43;103752.22;;;0.30;100.00
70546;BME280;58098;51.680;5.134;2023-01-25T03:59:10;103741.06;;;0.26;100.00
70546;BME280;58098;51.680;5.134;2023-01-25T04:01:36;103752.25;;;0.31;100.00
70546;BME280;58098;51.680;5.134;2023-01-25T04:04:01;103746.22;;;0.26;100.00
70546;BME280;58098;51.680;5.134;2023-01-25T04:06:27;103749.66;;;0.30;100.00
70546;BME280;58098;51.680;5.134;2023-01-25T04:08:52;103738.44;;;0.20;100.00
70546;BME280;58098;51.680;5.134;2023-01-25T04:11:18;103747.94;;;0.29;100.00
70546;BME280;58098;51.680;5.134;2023-01-25T04:13:43;103749.59;;;0.25;100.00
70546;BME280;58098;51.680;5.134;2023-01-25T04:16:09;103742.72;;;0.23;100.00
70546;BME280;58098;51.680;5.134;2023-01-25T04:18:38;103741.03;;;0.22;100.00
70546;BME280;58098;51.680;5.134;2023-01-25T04:21:04;103740.94;;;0.17;100.00
70546;BME280;58098;51.680;5.134;2023-01-25T04:23:30;103738.34;;;0.11;100.00
70546;BME280;58098;51.680;5.134;2023-01-25T04:28:22;103749.47;;;0.15;100.00
70546;BME280;58098;51.680;5.134;2023-01-25T04:30:48;103722.03;;;0.05;100.00
70546;BME280;58098;51.680;5.134;2023-01-25T04:33:13;103736.56;;;0.04;100.00
70546;BME280;58098;51.680;5.134;2023-01-25T04:35:39;103734.84;;;0.06;100.00
70546;BME280;58098;51.680;5.134;2023-01-25T04:38:05;103717.72;;;0.02;100.00
70546;BME280;58098;51.680;5.134;2023-01-25T04:40:31;103730.59;;;0.08;100.00
70546;BME280;58098;51.680;5.134;2023-01-25T04:42:56;103719.41;;;0.03;100.00
70546;BME280;58098;51.680;5.134;2023-01-25T04:45:23;103718.59;;;0.06;100.00
70546;BME280;58098;51.680;5.134;2023-01-25T04:47:57;103717.72;;;0.04;100.00
70546;BME280;58098;51.680;5.134;2023-01-25T04:50:23;103723.69;;;0.01;100.00
70546;BME280;58098;51.680;5.134;2023-01-25T04:52:49;103708.16;;;-0.11;100.00
70546;BME280;58098;51.680;5.134;2023-01-25T04:55:14;103736.56;;;0.04;100.00
70546;BME280;58098;51.680;5.134;2023-01-25T04:57:39;103723.63;;;-0.02;100.00
70546;BME280;58098;51.680;5.134;2023-01-25T05:00:05;103720.19;;;-0.04;100.00
70546;BME280;58098;51.680;5.134;2023-01-25T05:02:31;103728.75;;;-0.04;100.00
70546;BME280;58098;51.680;5.134;2023-01-25T05:04:56;103718.44;;;-0.08;100.00
70546;BME280;58098;51.680;5.134;2023-01-25T05:07:21;103721.06;;;-0.05;100.00
70546;BME280;58098;51.680;5.134;2023-01-25T05:09:47;103713.34;;;-0.05;100.00
70546;BME280;58098;51.680;5.134;2023-01-25T05:12:12;103700.44;;;-0.11;100.00
70546;BME280;58098;51.680;5.134;2023-01-25T05:14:38;103697.06;;;-0.10;100.00
70546;BME280;58098;51.680;5.134;2023-01-25T05:17:04;103705.72;;;0.01;100.00
70546;BME280;58098;51.680;5.134;2023-01-25T05:19:30;103700.53;;;-0.05;100.00
70546;BME280;58098;51.680;5.134;2023-01-25T05:21:56;103697.06;;;-0.07;100.00
70546;BME280;58098;51.680;5.134;2023-01-25T05:24:25;103704.00;;;0.00;100.00
70546;BME280;58098;51.680;5.134;2023-01-25T05:26:51;103693.66;;;-0.06;100.00
70546;BME280;58098;51.680;5.134;2023-01-25T05:29:35;103701.38;;;-0.06;100.00
70546;BME280;58098;51.680;5.134;2023-01-25T05:32:06;103666.03;;;-0.28;100.00
70546;BME280;58098;51.680;5.134;2023-01-25T05:34:32;103700.50;;;-0.08;100.00
70546;BME280;58098;51.680;5.134;2023-01-25T05:36:58;103702.19;;;-0.07;100.00
70546;BME280;58098;51.680;5.134;2023-01-25T05:39:23;103704.75;;;-0.07;100.00
70546;BME280;58098;51.680;5.134;2023-01-25T05:41:49;103696.22;;;-0.08;100.00
70546;BME280;58098;51.680;5.134;2023-01-25T05:44:14;103687.56;;;-0.16;100.00
70546;BME280;58098;51.680;5.134;2023-01-25T05:46:40;103693.59;;;-0.12;100.00
70546;BME280;58098;51.680;5.134;2023-01-25T05:49:05;103674.69;;;-0.20;100.00
70546;BME280;58098;51.680;5.134;2023-01-25T05:51:31;103682.41;;;-0.19;100.00
70546;BME280;58098;51.680;5.134;2023-01-25T05:53:56;103688.41;;;-0.18;100.00
70546;BME280;58098;51.680;5.134;2023-01-25T05:56:22;103686.69;;;-0.18;100.00
70546;BME280;58098;51.680;5.134;2023-01-25T05:58:52;103684.13;;;-0.18;100.00
70546;BME280;58098;51.680;5.134;2023-01-25T06:01:18;103680.63;;;-0.24;100.00
70546;BME280;58098;51.680;5.134;2023-01-25T06:03:44;103691.84;;;-0.16;100.00
70546;BME280;58098;51.680;5.134;2023-01-25T06:06:10;103702.13;;;-0.13;100.00
70546;BME280;58098;51.680;5.134;2023-01-25T06:08:35;103697.88;;;-0.13;100.00
70546;BME280;58098;51.680;5.134;2023-01-25T06:11:06;103697.91;;;-0.08;100.00
70546;BME280;58098;51.680;5.134;2023-01-25T06:13:31;103700.50;;;-0.07;100.00
70546;BME280;58098;51.680;5.134;2023-01-25T06:15:56;103693.66;;;-0.06;100.00
70546;BME280;58098;51.680;5.134;2023-01-25T06:18:22;103685.00;;;-0.14;100.00
70546;BME280;58098;51.680;5.134;2023-01-25T06:20:49;103696.22;;;-0.06;100.00
70546;BME280;58098;51.680;5.134;2023-01-25T06:23:14;103695.34;;;-0.08;100.00
70546;BME280;58098;51.680;5.134;2023-01-25T06:25:40;103702.19;;;-0.10;100.00
70546;BME280;58098;51.680;5.134;2023-01-25T06:28:05;103687.53;;;-0.20;100.00
70546;BME280;58098;51.680;5.134;2023-01-25T06:30:31;103704.72;;;-0.13;100.00
70546;BME280;58098;51.680;5.134;2023-01-25T06:32:57;103696.97;;;-0.18;100.00
70546;BME280;58098;51.680;5.134;2023-01-25T06:35:23;103691.78;;;-0.22;100.00
70546;BME280;58098;51.680;5.134;2023-01-25T06:37:48;103695.25;;;-0.17;100.00
70546;BME280;58098;51.680;5.134;2023-01-25T06:40:14;103702.91;;;-0.20;100.00
70546;BME280;58098;51.680;5.134;2023-01-25T06:42:39;103693.38;;;-0.29;100.00
70546;BME280;58098;51.680;5.134;2023-01-25T06:45:05;103677.91;;;-0.36;100.00
70546;BME280;58098;51.680;5.134;2023-01-25T06:47:30;103692.56;;;-0.28;100.00
70546;BME280;58098;51.680;5.134;2023-01-25T06:49:56;103695.13;;;-0.26;100.00
70546;BME280;58098;51.680;5.134;2023-01-25T06:52:21;103690.00;;;-0.26;100.00
70546;BME280;58098;51.680;5.134;2023-01-25T06:54:46;103702.03;;;-0.22;100.00
70546;BME280;58098;51.680;5.134;2023-01-25T06:57:12;103695.13;;;-0.26;100.00
70546;BME280;58098;51.680;5.134;2023-01-25T06:59:37;103691.69;;;-0.28;100.00
70546;BME280;58098;51.680;5.134;2023-01-25T07:02:02;103695.94;;;-0.30;100.00
70546;BME280;58098;51.680;5.134;2023-01-25T07:04:27;103685.59;;;-0.38;100.00
70546;BME280;58098;51.680;5.134;2023-01-25T07:06:53;103702.00;;;-0.25;100.00
70546;BME280;58098;51.680;5.134;2023-01-25T07:09:18;103697.69;;;-0.28;100.00
70546;BME280;58098;51.680;5.134;2023-01-25T07:11:51;103684.88;;;-0.29;100.00
70546;BME280;58098;51.680;5.134;2023-01-25T07:14:16;103695.13;;;-0.29;100.00
70546;BME280;58098;51.680;5.134;2023-01-25T07:16:42;103679.69;;;-0.32;100.00
70546;BME280;58098;51.680;5.134;2023-01-25T07:19:10;103686.66;;;-0.19;100.00
70546;BME280;58098;51.680;5.134;2023-01-25T07:21:37;103671.22;;;-0.25;100.00
70546;BME280;58098;51.680;5.134;2023-01-25T07:24:03;103671.22;;;-0.24;100.00
70546;BME280;58098;51.680;5.134;2023-01-25T07:26:29;103673.00;;;-0.18;100.00
70546;BME280;58098;51.680;5.134;2023-01-25T07:28:56;103669.56;;;-0.20;100.00
70546;BME280;58098;51.680;5.134;2023-01-25T07:31:22;103672.09;;;-0.22;100.00
70546;BME280;58098;51.680;5.134;2023-01-25T07:33:53;103678.13;;;-0.18;100.00
70546;BME280;58098;51.680;5.134;2023-01-25T07:36:18;103664.44;;;-0.20;100.00
70546;BME280;58098;51.680;5.134;2023-01-25T07:38:44;103663.50;;;-0.27;100.00
70546;BME280;58098;51.680;5.134;2023-01-25T07:41:10;103675.56;;;-0.20;100.00
70546;BME280;58098;51.680;5.134;2023-01-25T07:43:35;103679.84;;;-0.20;100.00
70546;BME280;58098;51.680;5.134;2023-01-25T07:46:09;103669.59;;;-0.17;100.00
70546;BME280;58098;51.680;5.134;2023-01-25T07:48:35;103660.97;;;-0.25;100.00
70546;BME280;58098;51.680;5.134;2023-01-25T07:51:02;103666.09;;;-0.25;100.00
70546;BME280;58098;51.680;5.134;2023-01-25T07:53:50;103664.44;;;-0.20;100.00
70546;BME280;58098;51.680;5.134;2023-01-25T07:56:17;103673.06;;;-0.12;100.00
70546;BME280;58098;51.680;5.134;2023-01-25T07:58:43;103656.75;;;-0.20;100.00
70546;BME280;58098;51.680;5.134;2023-01-25T08:01:13;103667.03;;;-0.16;100.00
70546;BME280;58098;51.680;5.134;2023-01-25T08:03:38;103660.22;;;-0.15;100.00
70546;BME280;58098;51.680;5.134;2023-01-25T08:06:05;103647.34;;;-0.18;100.00
70546;BME280;58098;51.680;5.134;2023-01-25T08:08:31;103656.00;;;-0.10;100.00
70546;BME280;58098;51.680;5.134;2023-01-25T08:13:33;103657.69;;;-0.09;100.00
70546;BME280;58098;51.680;5.134;2023-01-25T08:15:58;103660.25;;;-0.09;100.00
70546;BME280;58098;51.680;5.134;2023-01-25T08:18:24;103661.13;;;-0.09;100.00
70546;BME280;58098;51.680;5.134;2023-01-25T08:20:49;103654.22;;;-0.17;100.00
70546;BME280;58098;51.680;5.134;2023-01-25T08:23:15;103652.56;;;-0.09;100.00
70546;BME280;58098;51.680;5.134;2023-01-25T08:25:40;103654.25;;;-0.11;100.00
70546;BME280;58098;51.680;5.134;2023-01-25T08:28:05;103631.13;;;-0.17;100.00
70546;BME280;58098;51.680;5.134;2023-01-25T08:30:32;103650.88;;;-0.10;100.00
70546;BME280;58098;51.680;5.134;2023-01-25T08:32:57;103652.56;;;-0.09;100.00
70546;BME280;58098;51.680;5.134;2023-01-25T08:35:23;103650.00;;;-0.11;100.00
70546;BME280;58098;51.680;5.134;2023-01-25T08:37:48;103648.31;;;-0.07;100.00
70546;BME280;58098;51.680;5.134;2023-01-25T08:40:13;103651.75;;;-0.08;100.00
70546;BME280;58098;51.680;5.134;2023-01-25T08:42:39;103628.53;;;-0.20;100.00
70546;BME280;58098;51.680;5.134;2023-01-25T08:45:07;103648.22;;;-0.16;100.00
70546;BME280;58098;51.680;5.134;2023-01-25T08:47:33;103638.75;;;-0.23;100.00
70546;BME280;58098;51.680;5.134;2023-01-25T08:49:58;103637.88;;;-0.24;100.00
70546;BME280;58098;51.680;5.134;2023-01-25T08:52:23;103653.38;;;-0.15;100.00
70546;BME280;58098;51.680;5.134;2023-01-25T08:54:49;103646.53;;;-0.14;100.00
70546;BME280;58098;51.680;5.134;2023-01-25T08:57:14;103649.03;;;-0.20;100.00
70546;BME280;58098;51.680;5.134;2023-01-25T08:59:39;103649.09;;;-0.17;100.00
70546;BME280;58098;51.680;5.134;2023-01-25T09:02:05;103631.88;;;-0.24;100.00
70546;BME280;58098;51.680;5.134;2023-01-25T09:04:30;103642.25;;;-0.14;100.00
70546;BME280;58098;51.680;5.134;2023-01-25T09:06:56;103638.84;;;-0.14;100.00
70546;BME280;58098;51.680;5.134;2023-01-25T09:09:22;103631.06;;;-0.22;100.00
70546;BME280;58098;51.680;5.134;2023-01-25T09:11:49;103594.06;;;-0.43;100.00
70546;BME280;58098;51.680;5.134;2023-01-25T09:14:15;103640.47;;;-0.22;100.00
70546;BME280;58098;51.680;5.134;2023-01-25T09:16:44;103642.13;;;-0.26;100.00
70546;BME280;58098;51.680;5.134;2023-01-25T09:19:09;103624.97;;;-0.34;100.00
70546;BME280;58098;51.680;5.134;2023-01-25T09:21:35;103631.88;;;-0.24;100.00
70546;BME280;58098;51.680;5.134;2023-01-25T09:24:01;103625.09;;;-0.22;100.00
70546;BME280;58098;51.680;5.134;2023-01-25T09:26:27;103625.91;;;-0.23;100.00
70546;BME280;58098;51.680;5.134;2023-01-25T09:28:53;103635.34;;;-0.22;100.00
70546;BME280;58098;51.680;5.134;2023-01-25T09:31:19;103605.25;;;-0.37;100.00
70546;BME280;58098;51.680;5.134;2023-01-25T09:33:44;103626.75;;;-0.24;100.00
70546;BME280;58098;51.680;5.134;2023-01-25T09:36:10;103626.75;;;-0.24;100.00
70546;BME280;58098;51.680;5.134;2023-01-25T09:38:35;103629.34;;;-0.21;100.00
70546;BME280;58098;51.680;5.134;2023-01-25T09:41:11;103622.56;;;-0.16;100.00
70546;BME280;58098;51.680;5.134;2023-01-25T09:46:48;103620.91;;;-0.11;100.00
70546;BME280;58098;51.680;5.134;2023-01-25T09:52:38;103628.56;;;-0.17;100.00
70546;BME280;58098;51.680;5.134;2023-01-25T09:55:17;103611.44;;;-0.18;100.00
70546;BME280;58098;51.680;5.134;2023-01-25T09:57:45;103605.44;;;-0.19;100.00
70546;BME280;58098;51.680;5.134;2023-01-25T10:00:17;103608.78;;;-0.24;100.00
70546;BME280;58098;51.680;5.134;2023-01-25T10:05:30;103617.44;;;-0.18;100.00
70546;BME280;58098;51.680;5.134;2023-01-25T10:08:01;103613.13;;;-0.20;100.00
70546;BME280;58098;51.680;5.134;2023-01-25T10:10:41;103589.19;;;-0.22;100.00
70546;BME280;58098;51.680;5.134;2023-01-25T10:13:13;103603.00;;;-0.07;100.00
70546;BME280;58098;51.680;5.134;2023-01-25T10:15:43;103598.72;;;-0.05;100.00
70546;BME280;58098;51.680;5.134;2023-01-25T10:18:20;103609.06;;;0.02;100.00
70546;BME280;58098;51.680;5.134;2023-01-25T10:20:57;103597.94;;;0.03;100.00
70546;BME280;58098;51.680;5.134;2023-01-25T10:31:23;103591.34;;;0.30;100.00
70546;BME280;58098;51.680;5.134;2023-01-25T10:33:51;103571.53;;;0.17;100.00
70546;BME280;58098;51.680;5.134;2023-01-25T10:36:21;103576.75;;;0.23;100.00
70546;BME280;58098;51.680;5.134;2023-01-25T10:38:47;103568.06;;;0.09;100.00
70546;BME280;58098;51.680;5.134;2023-01-25T10:41:30;103568.97;;;0.17;100.00
70546;BME280;58098;51.680;5.134;2023-01-25T10:43:58;103562.06;;;0.07;100.00
70546;BME280;58098;51.680;5.134;2023-01-25T10:46:49;103547.56;;;0.12;100.00
70546;BME280;58098;51.680;5.134;2023-01-25T10:49:40;103546.81;;;0.27;100.00
70546;BME280;58098;51.680;5.134;2023-01-25T10:57:44;103512.59;;;0.26;100.00
70546;BME280;58098;51.680;5.134;2023-01-25T11:00:40;103524.59;;;0.30;100.00
70546;BME280;58098;51.680;5.134;2023-01-25T11:03:18;103509.19;;;0.32;100.00
70546;BME280;58098;51.680;5.134;2023-01-25T11:05:52;103512.63;;;0.35;100.00
70546;BME280;58098;51.680;5.134;2023-01-25T11:10:56;103483.47;;;0.27;100.00
70546;BME280;58098;51.680;5.134;2023-01-25T11:13:31;103500.66;;;0.37;100.00
70546;BME280;58098;51.680;5.134;2023-01-25T11:18:31;103472.34;;;0.24;100.00
70546;BME280;58098;51.680;5.134;2023-01-25T11:23:40;103472.31;;;0.22;100.00
70546;BME280;58098;51.680;5.134;2023-01-25T11:26:18;103468.09;;;0.32;100.00
70546;BME280;58098;51.680;5.134;2023-01-25T11:28:45;103444.94;;;0.20;100.00
70546;BME280;58098;51.680;5.134;2023-01-25T11:31:20;103449.28;;;0.27;100.00
70546;BME280;58098;51.680;5.134;2023-01-25T11:33:46;103439.88;;;0.33;100.00
70546;BME280;58098;51.680;5.134;2023-01-25T11:36:32;103425.31;;;0.32;100.00
70546;BME280;58098;51.680;5.134;2023-01-25T11:39:09;103437.34;;;0.41;100.00
70546;BME280;58098;51.680;5.134;2023-01-25T11:42:27;103442.50;;;0.42;100.00
70546;BME280;58098;51.680;5.134;2023-01-25T11:44:51;103434.78;;;0.44;100.00
70546;BME280;58098;51.680;5.134;2023-01-25T11:55:49;103382.56;;;0.37;100.00
70546;BME280;58098;51.680;5.134;2023-01-25T12:01:18;103386.06;;;0.60;100.00
70546;BME280;58098;51.680;5.134;2023-01-25T12:12:04;103370.59;;;0.47;100.00
70546;BME280;58098;51.680;5.134;2023-01-25T12:17:34;103362.06;;;0.48;100.00
70546;BME280;58098;51.680;5.134;2023-01-25T12:20:30;103348.38;;;0.50;100.00
70546;BME280;58098;51.680;5.134;2023-01-25T12:25:44;103332.09;;;0.48;100.00
70546;BME280;58098;51.680;5.134;2023-01-25T12:28:18;103310.66;;;0.31;100.00
70546;BME280;58098;51.680;5.134;2023-01-25T12:30:59;103300.38;;;0.28;100.00
70546;BME280;58098;51.680;5.134;2023-01-25T12:33:36;103307.28;;;0.41;100.00
70546;BME280;58098;51.680;5.134;2023-01-25T12:43:44;103291.03;;;0.54;100.00
70546;BME280;58098;51.680;5.134;2023-01-25T12:46:20;103286.75;;;0.55;100.00
70546;BME280;58098;51.680;5.134;2023-01-25T12:48:49;103273.03;;;0.45;100.00
70546;BME280;58098;51.680;5.134;2023-01-25T12:51:17;103285.88;;;0.51;100.00
70546;BME280;58098;51.680;5.134;2023-01-25T12:53:46;103280.72;;;0.42;100.00
70546;BME280;58098;51.680;5.134;2023-01-25T12:56:33;103281.59;;;0.50;100.00
70546;BME280;58098;51.680;5.134;2023-01-25T12:59:22;103261.88;;;0.37;100.00
70546;BME280;58098;51.680;5.134;2023-01-25T13:02:12;103280.75;;;0.48;100.00
70546;BME280;58098;51.680;5.134;2023-01-25T13:05:01;103272.16;;;0.42;100.00
70546;BME280;58098;51.680;5.134;2023-01-25T13:07:43;103243.06;;;0.40;100.00
70546;BME280;58098;51.680;5.134;2023-01-25T13:10:23;103240.50;;;0.43;100.00
70546;BME280;58098;51.680;5.134;2023-01-25T13:12:55;103234.50;;;0.36;100.00
70546;BME280;58098;51.680;5.134;2023-01-25T13:18:00;103213.09;;;0.28;100.00
70546;BME280;58098;51.680;5.134;2023-01-25T13:23:03;103211.41;;;0.36;100.00
70546;BME280;58098;51.680;5.134;2023-01-25T13:25:28;103196.84;;;0.40;100.00
70546;BME280;58098;51.680;5.134;2023-01-25T13:30:56;103185.72;;;0.39;100.00
70546;BME280;58098;51.680;5.134;2023-01-25T13:33:33;103178.88;;;0.44;100.00
70546;BME280;58098;51.680;5.134;2023-01-25T13:37:01;103205.41;;;0.54;100.00
70546;BME280;58098;51.680;5.134;2023-01-25T13:44:41;103186.53;;;0.20;100.00
70546;BME280;58098;51.680;5.134;2023-01-25T13:47:10;103201.09;;;0.23;100.00
70546;BME280;58098;51.680;5.134;2023-01-25T13:49:40;103201.13;;;0.24;100.00
70546;BME280;58098;51.680;5.134;2023-01-25T13:52:07;103195.94;;;0.20;100.00
70546;BME280;58098;51.680;5.134;2023-01-25T13:54:43;103194.25;;;0.23;100.00
70546;BME280;58098;51.680;5.134;2023-01-25T13:57:11;103193.38;;;0.20;100.00
70546;BME280;58098;51.680;5.134;2023-01-25T13:59:37;103194.25;;;0.11;100.00
70546;BME280;58098;51.680;5.134;2023-01-25T14:02:10;103195.97;;;0.21;100.00
70546;BME280;58098;51.680;5.134;2023-01-25T14:04:37;103194.25;;;0.23;100.00
70546;BME280;58098;51.680;5.134;2023-01-25T14:07:02;103176.25;;;0.17;100.00
70546;BME280;58098;51.680;5.134;2023-01-25T14:09:34;103201.09;;;0.18;100.00
70546;BME280;58098;51.680;5.134;2023-01-25T14:12:02;103196.81;;;0.20;100.00
70546;BME280;58098;51.680;5.134;2023-01-25T14:14:30;103186.53;;;0.11;100.00
70546;BME280;58098;51.680;5.134;2023-01-25T14:17:19;103194.25;;;0.14;100.00
70546;BME280;58098;51.680;5.134;2023-01-25T14:19:56;103192.53;;;0.13;100.00
70546;BME280;58098;51.680;5.134;2023-01-25T14:22:29;103185.69;;;0.18;100.00